Time;durP1;ratioP1;P1;durP2;ratioP2;P2;SDS_P1;SDS_P2;PMS_P1;PMS_P2;Temp;Humidity;BMP_temperature;BMP_pressure;BME280_temperature;BME280_humidity;BME280_pressure;Samples;Min_cycle;Max_cycle;Signal;HPM_P1;HPM_P2
2022/05/27 00:01:15;;;;;;;3.27;2.40;;;15.40;67.70;;;;;;4976702;28;20509;-72
2022/05/27 00:03:40;;;;;;;5.73;3.17;;;15.40;66.60;;;;;;4981226;28;20805;-72
2022/05/27 00:06:06;;;;;;;3.40;2.23;;;15.40;67.00;;;;;;4979751;28;20435;-72
2022/05/27 00:08:32;;;;;;;3.03;2.57;;;15.30;68.30;;;;;;4979579;28;20678;-72
2022/05/27 00:10:59;;;;;;;5.50;2.67;;;15.20;70.00;;;;;;4982946;28;20313;-72
2022/05/27 00:13:25;;;;;;;4.00;3.00;;;15.30;68.30;;;;;;4985188;28;20222;-72
2022/05/27 00:15:51;;;;;;;3.33;2.70;;;15.30;68.60;;;;;;4970426;28;21033;-72
2022/05/27 00:18:17;;;;;;;2.90;2.30;;;15.30;68.50;;;;;;4963050;28;20627;-71
2022/05/27 00:20:43;;;;;;;3.93;2.47;;;15.40;69.40;;;;;;4966948;28;20183;-71
2022/05/27 00:23:09;;;;;;;2.20;2.00;;;;;;;;;;4980777;28;20373;-71
2022/05/27 00:25:34;;;;;;;4.33;2.27;;;15.60;66.70;;;;;;4982198;28;20430;-71
2022/05/27 00:28:00;;;;;;;4.17;2.53;;;15.70;66.60;;;;;;4979150;28;20909;-72
2022/05/27 00:30:27;;;;;;;6.30;2.50;;;15.80;67.90;;;;;;4978424;28;20184;-72
2022/05/27 00:32:53;;;;;;;3.97;2.10;;;15.90;59.50;;;;;;4969742;28;20194;-72
2022/05/27 00:35:19;;;;;;;2.33;2.13;;;15.90;58.00;;;;;;4969439;28;20469;-71
2022/05/27 00:37:45;;;;;;;5.67;2.27;;;16.00;56.80;;;;;;4981584;28;20419;-72
2022/05/27 00:40:12;;;;;;;3.70;2.73;;;16.00;57.30;;;;;;4988246;28;20578;-72
2022/05/27 00:42:41;;;;;;;4.40;2.70;;;16.10;58.00;;;;;;4979231;28;20180;-72
2022/05/27 00:45:14;;;;;;;2.93;2.37;;;16.10;56.40;;;;;;4984553;28;20447;-72
2022/05/27 00:47:42;;;;;;;2.93;2.30;;;16.20;61.90;;;;;;4971144;28;20438;-71
2022/05/27 00:50:11;;;;;;;5.30;2.80;;;16.20;63.60;;;;;;4989025;28;20421;-72
2022/05/27 00:52:40;;;;;;;3.50;2.53;;;16.20;62.10;;;;;;4978991;28;20451;-72
2022/05/27 00:55:10;;;;;;;4.37;2.80;;;16.20;61.30;;;;;;4969216;28;20483;-72
2022/05/27 00:57:40;;;;;;;7.60;2.73;;;16.20;64.40;;;;;;4979139;28;20415;-72
2022/05/27 01:00:12;;;;;;;8.10;2.37;;;16.20;61.10;;;;;;4987612;28;20946;-72
2022/05/27 01:02:38;;;;;;;3.37;2.70;;;16.10;61.40;;;;;;4969653;28;20523;-71
2022/05/27 01:05:06;;;;;;;3.97;2.37;;;16.10;66.30;;;;;;4970843;28;20538;-72
2022/05/27 01:07:31;;;;;;;4.57;2.50;;;16.10;60.90;;;;;;4979603;28;20538;-72
2022/05/27 01:09:58;;;;;;;4.23;2.50;;;16.00;62.70;;;;;;4983056;28;20465;-72
2022/05/27 01:12:49;;;;;;;4.40;2.80;;;16.00;67.40;;;;;;4982314;28;20183;-72
2022/05/27 01:15:55;;;;;;;3.60;2.30;;;16.00;68.60;;;;;;4965012;28;20471;-71
2022/05/27 01:21:59;;;;;;;5.93;2.53;;;15.90;70.00;;;;;;4975940;28;20498;-72
2022/05/27 01:24:42;;;;;;;5.07;3.00;;;15.90;72.50;;;;;;4974454;28;20483;-71
2022/05/27 01:27:42;;;;;;;3.80;2.60;;;15.80;69.00;;;;;;4972605;28;20437;-72
2022/05/27 01:30:17;;;;;;;3.60;2.47;;;15.80;69.60;;;;;;4958372;28;20921;-72
2022/05/27 01:33:10;;;;;;;3.63;2.40;;;15.70;71.00;;;;;;4973731;28;20801;-72
2022/05/27 01:35:43;;;;;;;5.80;2.50;;;15.70;73.70;;;;;;4979611;28;20487;-72
2022/05/27 01:38:14;;;;;;;6.47;2.63;;;15.70;74.70;;;;;;4974220;28;20768;-72
2022/05/27 01:41:23;;;;;;;4.77;2.43;;;15.60;74.30;;;;;;4982703;28;20500;-72
2022/05/27 01:43:59;;;;;;;2.70;2.40;;;15.40;83.00;;;;;;4897587;29;20565;-72
2022/05/27 01:46:40;;;;;;;3.20;2.57;;;15.30;87.10;;;;;;4957654;28;20885;-71
2022/05/27 01:49:13;;;;;;;4.73;2.70;;;15.20;90.30;;;;;;4977039;28;20426;-72
2022/05/27 01:51:48;;;;;;;2.80;2.50;;;15.10;93.10;;;;;;4965432;28;20426;-71
2022/05/27 01:54:20;;;;;;;3.60;2.60;;;15.10;91.70;;;;;;4970357;28;20442;-72
2022/05/27 01:56:50;;;;;;;3.77;2.43;;;15.10;91.40;;;;;;4969437;28;20525;-72
2022/05/27 01:59:27;;;;;;;9.23;2.57;;;15.10;92.60;;;;;;4974413;28;20419;-72
2022/05/27 02:02:11;;;;;;;3.03;2.73;;;15.10;93.10;;;;;;4977180;28;20468;-72
2022/05/27 02:04:45;;;;;;;8.83;2.90;;;15.20;92.70;;;;;;4969247;28;20544;-71
2022/05/27 02:07:19;;;;;;;4.70;2.57;;;15.20;94.40;;;;;;4977695;28;20529;-71
2022/05/27 02:09:50;;;;;;;4.00;2.30;;;15.20;93.40;;;;;;4978906;28;20445;-71
2022/05/27 02:12:29;;;;;;;4.97;2.90;;;15.20;94.50;;;;;;4978512;28;20810;-72
2022/05/27 02:14:58;;;;;;;3.50;2.90;;;15.20;96.20;;;;;;4976835;28;20541;-72
2022/05/27 02:17:33;;;;;;;4.67;3.03;;;15.20;97.90;;;;;;4969015;28;20427;-72
2022/05/27 02:20:07;;;;;;;9.17;2.80;;;15.20;97.30;;;;;;4975787;28;20414;-72
2022/05/27 02:22:45;;;;;;;4.10;2.60;;;15.20;99.10;;;;;;4970213;28;20506;-72
2022/05/27 02:25:16;;;;;;;5.27;2.70;;;15.10;98.60;;;;;;4982694;28;20445;-72
2022/05/27 02:27:51;;;;;;;5.03;2.67;;;15.10;99.90;;;;;;4990120;28;20805;-72
2022/05/27 02:30:21;;;;;;;7.73;3.10;;;15.20;99.90;;;;;;4964231;28;20962;-72
2022/05/27 02:35:07;;;;;;;6.73;3.10;;;15.10;97.60;;;;;;4966798;28;20525;-71
2022/05/27 02:35:43;;;;;;;4.50;3.10;;;15.10;99.70;;;;;;4968994;28;20984;-71
2022/05/27 02:38:09;;;;;;;6.27;2.93;;;15.00;99.90;;;;;;4982278;28;20426;-72
2022/05/27 02:40:51;;;;;;;5.27;2.60;;;15.10;99.90;;;;;;4984525;28;20569;-73
2022/05/27 02:43:35;;;;;;;4.00;2.60;;;15.00;99.90;;;;;;4979045;28;20184;-71
2022/05/27 02:46:06;;;;;;;7.30;3.10;;;15.00;99.90;;;;;;4963805;28;20435;-72
2022/05/27 02:48:44;;;;;;;2.87;2.57;;;15.00;99.90;;;;;;4969983;28;20565;-72
2022/05/27 02:51:45;;;;;;;6.43;2.90;;;15.00;99.90;;;;;;4979433;28;20427;-72
2022/05/27 02:54:33;;;;;;;4.37;2.87;;;15.00;99.90;;;;;;4960751;28;20449;-71
2022/05/27 02:57:18;;;;;;;4.47;2.90;;;14.90;99.90;;;;;;4973228;28;20872;-72
2022/05/27 02:59:45;;;;;;;6.53;3.00;;;14.90;99.90;;;;;;4971127;28;20434;-72
2022/05/27 03:02:15;;;;;;;4.80;2.70;;;14.80;99.90;;;;;;4974158;28;20408;-72
2022/05/27 03:04:49;;;;;;;3.20;2.50;;;14.80;99.90;;;;;;4972915;28;20500;-72
2022/05/27 03:07:33;;;;;;;4.63;2.53;;;14.80;99.90;;;;;;4968751;28;20485;-71
2022/05/27 03:10:44;;;;;;;4.93;2.80;;;14.70;99.90;;;;;;4977402;28;20929;-72
2022/05/27 03:13:39;;;;;;;4.90;3.10;;;14.70;99.90;;;;;;4971452;28;20422;-71
2022/05/27 03:16:10;;;;;;;4.80;2.70;;;14.70;99.90;;;;;;4966419;28;20517;-71
2022/05/27 03:19:06;;;;;;;4.97;2.60;;;14.60;99.90;;;;;;4967118;28;20431;-72
2022/05/27 03:22:13;;;;;;;4.07;2.30;;;14.50;99.90;;;;;;4975972;28;20434;-71
2022/05/27 03:24:52;;;;;;;6.80;2.97;;;14.40;99.90;;;;;;4952097;28;20450;-71
2022/05/27 03:27:36;;;;;;;4.60;2.70;;;14.40;99.90;;;;;;4974533;28;20498;-71
2022/05/27 03:30:09;;;;;;;5.20;2.80;;;14.30;99.90;;;;;;4965060;28;20418;-71
2022/05/27 03:32:40;;;;;;;4.20;3.10;;;14.20;99.90;;;;;;4972695;28;20425;-71
2022/05/27 03:35:13;;;;;;;4.40;3.20;;;14.20;99.90;;;;;;4971565;28;20731;-71
2022/05/27 03:38:02;;;;;;;6.67;3.23;;;14.10;99.90;;;;;;4979177;28;20448;-72
2022/05/27 03:40:41;;;;;;;6.77;2.70;;;14.10;99.90;;;;;;4979772;28;20430;-72
2022/05/27 03:43:09;;;;;;;4.37;3.00;;;14.10;99.90;;;;;;4973097;28;20414;-71
2022/05/27 03:45:48;;;;;;;5.60;3.10;;;14.10;99.90;;;;;;4971777;28;20470;-71
2022/05/27 03:48:13;;;;;;;4.37;3.60;;;14.30;99.90;;;;;;4952893;28;20462;-72
2022/05/27 03:50:39;;;;;;;4.93;3.20;;;14.50;99.90;;;;;;4973396;28;20924;-71
2022/05/27 03:53:05;;;;;;;5.60;3.50;;;14.60;99.90;;;;;;4971802;28;20180;-71
2022/05/27 03:55:30;;;;;;;7.60;3.70;;;14.80;99.90;;;;;;4971166;28;20233;-71
2022/05/27 03:57:56;;;;;;;5.93;3.37;;;14.90;99.90;;;;;;4976319;28;20251;-72
2022/05/27 04:00:22;;;;;;;4.10;3.70;;;15.00;99.90;;;;;;4973407;28;20477;-72
2022/05/27 04:02:47;;;;;;;7.13;3.50;;;15.20;99.90;;;;;;4979244;28;20364;-71
2022/05/27 04:05:18;;;;;;;6.63;3.90;;;15.30;99.90;;;;;;4982343;28;20566;-71
2022/05/27 04:07:45;;;;;;;6.53;3.93;;;15.50;99.90;;;;;;4977088;28;20207;-71
2022/05/27 04:10:11;;;;;;;5.60;4.30;;;15.50;99.90;;;;;;4979981;28;20432;-71
2022/05/27 04:12:37;;;;;;;8.67;3.80;;;15.60;99.90;;;;;;4984367;28;20413;-71
2022/05/27 04:15:04;;;;;;;6.03;3.67;;;15.60;99.90;;;;;;4975506;28;20561;-71
2022/05/27 04:17:30;;;;;;;7.70;3.97;;;15.70;99.90;;;;;;4960042;28;20648;-71
2022/05/27 04:20:17;;;;;;;5.40;4.60;;;15.80;99.90;;;;;;4989997;28;20426;-71
2022/05/27 04:22:43;;;;;;;9.20;4.30;;;15.80;99.90;;;;;;4967330;28;20194;-71
2022/05/27 04:25:10;;;;;;;7.93;4.67;;;15.80;99.90;;;;;;4969140;28;20561;-72
2022/05/27 04:27:37;;;;;;;6.27;4.60;;;16.00;99.90;;;;;;4972260;28;20423;-71
2022/05/27 04:30:06;;;;;;;4.63;3.67;;;16.00;99.90;;;;;;4972111;28;20527;-71
2022/05/27 04:32:31;;;;;;;5.17;4.30;;;16.00;99.90;;;;;;4970827;28;20446;-72
2022/05/27 04:34:57;;;;;;;7.73;4.77;;;16.00;99.90;;;;;;4974755;28;20593;-72
2022/05/27 04:37:24;;;;;;;6.03;4.13;;;16.10;99.90;;;;;;4982831;28;20536;-71
2022/05/27 04:39:50;;;;;;;6.40;4.23;;;16.10;99.90;;;;;;4976768;28;20179;-72
2022/05/27 04:42:15;;;;;;;8.80;4.30;;;16.10;99.90;;;;;;4979388;28;20773;-72
2022/05/27 04:44:41;;;;;;;5.37;4.30;;;16.20;99.80;;;;;;4978485;28;20495;-71
2022/05/27 04:47:07;;;;;;;5.70;4.50;;;16.10;99.90;;;;;;4963701;28;20242;-72
2022/05/27 04:49:53;;;;;;;5.60;4.33;;;16.30;99.00;;;;;;4977741;28;20242;-71
2022/05/27 04:52:22;;;;;;;9.13;4.70;;;16.20;99.70;;;;;;4951832;28;20439;-72
2022/05/27 04:54:48;;;;;;;6.33;4.40;;;16.30;99.90;;;;;;4978690;28;20422;-72
2022/05/27 04:57:35;;;;;;;5.80;4.40;;;16.30;99.90;;;;;;4976222;28;20444;-72
2022/05/27 05:00:05;;;;;;;5.63;4.23;;;16.40;99.00;;;;;;4951627;28;20455;-71
2022/05/27 05:02:30;;;;;;;6.87;4.40;;;16.50;98.70;;;;;;4969028;28;20850;-71
2022/05/27 05:04:56;;;;;;;6.37;4.30;;;16.50;98.00;;;;;;4976513;28;20450;-72
2022/05/27 05:07:24;;;;;;;6.30;4.80;;;16.50;97.70;;;;;;4979560;28;20191;-72
2022/05/27 05:09:50;;;;;;;6.37;4.60;;;16.60;96.60;;;;;;4989408;28;20211;-71
2022/05/27 05:12:21;;;;;;;5.20;4.70;;;16.60;98.00;;;;;;4977403;28;20459;-72
2022/05/27 05:14:47;;;;;;;8.43;4.90;;;16.60;96.00;;;;;;4978818;28;20261;-72
2022/05/27 05:17:12;;;;;;;7.10;4.90;;;16.70;96.50;;;;;;4970510;28;20430;-71
2022/05/27 05:19:38;;;;;;;8.10;5.33;;;16.70;97.00;;;;;;4972774;28;20192;-71
2022/05/27 05:22:04;;;;;;;10.53;5.43;;;16.80;95.20;;;;;;4975754;28;20203;-72
2022/05/27 05:24:30;;;;;;;8.47;5.23;;;16.90;94.60;;;;;;4984539;28;21190;-71
2022/05/27 05:26:55;;;;;;;7.07;5.00;;;16.80;94.70;;;;;;4979111;28;20234;-72
2022/05/27 05:29:21;;;;;;;6.30;4.70;;;16.80;93.70;;;;;;4985162;28;20179;-72
2022/05/27 05:31:46;;;;;;;8.20;4.83;;;16.90;93.80;;;;;;4974268;28;20192;-71
2022/05/27 05:34:12;;;;;;;7.33;5.63;;;16.80;93.60;;;;;;4978753;28;20207;-73
2022/05/27 05:36:37;;;;;;;9.80;5.10;;;16.80;95.40;;;;;;4979124;28;20644;-71
2022/05/27 05:39:04;;;;;;;7.80;5.10;;;16.80;94.90;;;;;;4974797;28;20184;-72
2022/05/27 05:41:36;;;;;;;10.83;4.60;;;16.90;95.50;;;;;;4981383;28;20229;-72
2022/05/27 05:44:02;;;;;;;7.13;5.47;;;16.90;96.30;;;;;;4985225;28;20638;-72
2022/05/27 05:46:30;;;;;;;9.97;5.57;;;17.00;92.90;;;;;;4974408;28;20419;-72
2022/05/27 05:48:56;;;;;;;8.43;5.60;;;17.10;93.20;;;;;;4969891;28;20438;-72
2022/05/27 05:51:21;;;;;;;9.17;5.83;;;17.20;93.20;;;;;;4969072;28;20459;-72
2022/05/27 05:53:47;;;;;;;9.83;6.47;;;17.20;92.30;;;;;;4966380;28;20207;-73
2022/05/27 05:56:13;;;;;;;10.83;6.23;;;17.80;92.20;;;;;;4969127;28;20294;-72
2022/05/27 05:58:39;;;;;;;11.33;5.90;;;17.30;88.70;;;;;;4968288;28;20360;-72
2022/05/27 06:01:05;;;;;;;15.23;6.50;;;17.40;81.10;;;;;;4977758;28;20415;-72
2022/05/27 06:03:30;;;;;;;9.57;6.97;;;17.40;77.60;;;;;;4976192;28;20473;-71
2022/05/27 06:05:56;;;;;;;9.77;7.10;;;17.40;75.90;;;;;;4975503;28;20187;-71
2022/05/27 06:08:22;;;;;;;8.47;6.33;;;17.50;77.10;;;;;;4978776;28;20195;-72
2022/05/27 06:10:48;;;;;;;6.82;6.07;;;17.70;73.30;;;;;;4977851;28;20469;-73
2022/05/27 06:13:14;;;;;;;7.80;6.90;;;17.70;65.90;;;;;;4968984;28;20210;-72
2022/05/27 06:15:40;;;;;;;9.23;6.87;;;17.90;65.90;;;;;;4963172;28;20469;-71
2022/05/27 06:18:06;;;;;;;12.40;7.37;;;17.90;62.90;;;;;;4967925;28;20439;-72
2022/05/27 06:20:35;;;;;;;10.90;6.93;;;17.90;63.40;;;;;;4977427;28;20183;-71
2022/05/27 06:23:06;;;;;;;10.07;7.77;;;18.00;59.40;;;;;;4967417;28;20470;-72
2022/05/27 06:25:32;;;;;;;9.50;7.60;;;18.00;56.60;;;;;;4973594;28;20466;-72
2022/05/27 06:36:12;;;;;;;9.20;7.70;;;18.20;50.60;;;;;;4967477;28;20466;-71
2022/05/27 06:38:38;;;;;;;9.90;7.60;;;18.20;44.80;;;;;;4977632;28;20671;-72
2022/05/27 06:41:04;;;;;;;19.20;7.53;;;18.10;50.50;;;;;;4967537;28;20191;-72
2022/05/27 06:43:31;;;;;;;15.83;7.53;;;18.30;46.20;;;;;;4974929;28;20177;-72
2022/05/27 06:45:57;;;;;;;12.83;7.50;;;18.30;45.00;;;;;;4966347;28;20961;-71
2022/05/27 06:48:22;;;;;;;9.93;7.40;;;18.30;44.90;;;;;;4967086;28;20447;-73
2022/05/27 06:50:48;;;;;;;9.63;8.00;;;18.40;45.10;;;;;;4970913;28;20798;-72
2022/05/27 06:53:13;;;;;;;10.13;7.20;;;18.40;45.00;;;;;;4961616;28;20260;-72
2022/05/27 06:55:39;;;;;;;8.90;6.70;;;18.60;45.30;;;;;;4961267;28;20354;-72
2022/05/27 06:58:04;;;;;;;9.70;7.47;;;18.80;45.30;;;;;;4963393;28;20191;-72
2022/05/27 07:00:30;;;;;;;11.33;7.30;;;18.90;45.40;;;;;;4966503;28;20175;-72
2022/05/27 07:02:55;;;;;;;8.33;7.13;;;18.90;45.40;;;;;;4959982;28;20635;-71
2022/05/27 07:05:22;;;;;;;10.00;6.77;;;18.80;45.30;;;;;;4961824;28;20223;-72
2022/05/27 07:07:49;;;;;;;8.33;7.10;;;18.80;45.40;;;;;;4955785;28;20192;-72
2022/05/27 07:10:14;;;;;;;8.27;6.97;;;19.20;45.80;;;;;;4967131;28;20433;-72
2022/05/27 07:12:40;;;;;;;8.73;6.53;;;19.30;44.90;;;;;;4958909;28;20731;-72
2022/05/27 07:15:06;;;;;;;9.53;6.50;;;19.50;40.70;;;;;;4965967;28;20674;-72
2022/05/27 07:17:32;;;;;;;6.60;5.77;;;19.60;38.70;;;;;;4960040;28;20180;-71
2022/05/27 07:19:57;;;;;;;9.30;7.03;;;19.10;40.30;;;;;;4965546;28;20423;-71
2022/05/27 07:22:25;;;;;;;8.90;5.70;;;19.10;44.80;;;;;;4966974;28;20176;-71
2022/05/27 07:24:51;;;;;;;7.90;5.93;;;19.10;45.30;;;;;;4973642;28;20256;-72
2022/05/27 07:27:17;;;;;;;6.13;4.70;;;19.10;44.70;;;;;;4970711;28;20490;-76
2022/05/27 07:29:42;;;;;;;7.90;5.63;;;19.00;45.30;;;;;;4956771;28;20633;-74
2022/05/27 07:32:08;;;;;;;6.60;5.53;;;19.20;45.60;;;;;;4964812;28;20230;-74
2022/05/27 07:34:33;;;;;;;7.37;5.40;;;19.20;45.70;;;;;;4959062;28;20457;-75
2022/05/27 07:36:59;;;;;;;8.23;5.57;;;19.20;44.00;;;;;;4965396;28;20222;-76
2022/05/27 07:39:25;;;;;;;7.00;5.80;;;18.30;44.20;;;;;;4962446;28;20583;-74
2022/05/27 07:41:50;;;;;;;10.17;6.10;;;19.20;45.20;;;;;;4960682;28;20258;-75
2022/05/27 07:44:16;;;;;;;9.07;6.30;;;19.20;45.60;;;;;;4981155;28;20273;-74
2022/05/27 07:46:42;;;;;;;6.90;5.93;;;19.30;43.50;;;;;;4965646;28;20718;-74
2022/05/27 07:49:08;;;;;;;7.00;5.93;;;16.90;41.10;;;;;;4965822;28;20419;-74
2022/05/27 07:51:33;;;;;;;7.40;6.23;;;19.40;46.40;;;;;;4956674;28;20191;-74
2022/05/27 07:53:59;;;;;;;7.63;6.00;;;19.50;38.50;;;;;;4977034;28;20573;-74
2022/05/27 07:56:25;;;;;;;8.23;6.90;;;19.30;46.30;;;;;;4971152;28;20203;-75
2022/05/27 07:58:50;;;;;;;8.07;6.77;;;19.10;45.40;;;;;;4966759;28;20511;-74
2022/05/27 08:01:16;;;;;;;9.20;6.90;;;18.20;44.80;;;;;;4962584;28;20320;-74
2022/05/27 08:03:42;;;;;;;9.00;6.50;;;19.00;45.50;;;;;;4959903;28;20207;-74
2022/05/27 08:06:09;;;;;;;7.53;6.40;;;19.20;45.90;;;;;;4965507;28;20658;-74
2022/05/27 08:08:35;;;;;;;8.47;7.10;;;19.30;45.70;;;;;;4977646;28;20426;-74
2022/05/27 08:11:01;;;;;;;10.53;7.10;;;19.30;45.60;;;;;;4966892;28;21025;-73
2022/05/27 08:13:26;;;;;;;9.73;7.50;;;19.10;45.60;;;;;;4974641;28;20642;-74
2022/05/27 08:15:53;;;;;;;7.70;6.60;;;19.00;45.50;;;;;;4966856;28;20620;-74
2022/05/27 08:18:20;;;;;;;7.90;6.93;;;19.00;45.70;;;;;;4968798;28;20176;-74
2022/05/27 08:20:47;;;;;;;9.60;6.00;;;19.30;45.80;;;;;;4972191;28;20577;-74
2022/05/27 08:23:12;;;;;;;7.27;6.27;;;19.50;45.90;;;;;;4974656;28;20516;-73
2022/05/27 08:25:38;;;;;;;10.23;7.03;;;19.60;38.20;;;;;;4967573;28;20482;-74
2022/05/27 08:28:05;;;;;;;9.60;6.70;;;19.70;45.30;;;;;;4966618;28;20188;-76
2022/05/27 08:30:33;;;;;;;7.80;5.90;;;19.40;43.90;;;;;;4968675;28;20184;-71
2022/05/27 08:32:59;;;;;;;7.27;6.10;;;19.50;40.60;;;;;;4970465;28;20447;-73
2022/05/27 08:38:16;;;;;;;8.33;5.00;;;19.60;40.60;;;;;;4966805;28;20433;-72
2022/05/27 08:40:47;;;;;;;8.33;5.33;;;19.80;39.00;;;;;;4980343;28;20422;-72
2022/05/27 08:43:54;;;;;;;7.23;4.83;;;20.20;39.50;;;;;;4975804;28;20933;-71
2022/05/27 08:46:24;;;;;;;6.20;4.50;;;20.50;28.30;;;;;;4961133;28;20525;-75
2022/05/27 08:48:53;;;;;;;6.80;4.30;;;20.40;31.70;;;;;;4966385;28;20525;-71
2022/05/27 08:51:24;;;;;;;6.90;4.77;;;20.20;29.30;;;;;;4955536;28;21009;-71
2022/05/27 08:54:01;;;;;;;6.23;4.53;;;20.10;29.40;;;;;;4961140;28;20473;-70
2022/05/27 08:59:26;;;;;;;9.10;4.43;;;20.20;30.00;;;;;;4960603;28;20477;-71
2022/05/27 09:02:16;;;;;;;6.93;4.13;;;20.10;28.90;;;;;;4960854;28;20606;-71
2022/05/27 09:05:14;;;;;;;6.70;4.40;;;19.90;28.00;;;;;;4939189;28;20470;-71
2022/05/27 09:07:59;;;;;;;6.03;4.27;;;19.80;27.20;;;;;;4969974;28;20812;-72
2022/05/27 09:11:02;;;;;;;5.77;4.40;;;19.50;33.10;;;;;;4966469;28;20439;-72
2022/05/27 09:13:36;;;;;;;5.07;3.97;;;19.80;28.40;;;;;;4974246;28;20706;-73
2022/05/27 09:16:16;;;;;;;7.07;4.30;;;20.00;29.50;;;;;;4970145;28;20976;-72
2022/05/27 09:18:51;;;;;;;4.50;3.60;;;20.30;30.10;;;;;;4968356;28;20430;-72
2022/05/27 09:21:37;;;;;;;5.53;3.87;;;20.50;23.90;;;;;;4964526;28;20434;-72
2022/05/27 09:24:11;;;;;;;5.03;3.77;;;20.70;25.10;;;;;;4946610;28;20443;-71
2022/05/27 09:26:37;;;;;;;6.30;4.03;;;20.60;24.00;;;;;;4969895;28;20597;-72
2022/05/27 09:29:38;;;;;;;6.13;3.93;;;20.50;26.30;;;;;;4972032;28;20525;-72
2022/05/27 09:32:11;;;;;;;5.60;3.50;;;20.70;23.30;;;;;;4951348;28;20538;-71
2022/05/27 09:34:40;;;;;;;3.70;2.60;;;21.20;19.50;;;;;;4977800;28;20446;-71
2022/05/27 09:37:09;;;;;;;4.70;3.80;;;20.80;19.40;;;;;;4976128;28;20778;-72
2022/05/27 09:39:34;;;;;;;5.20;3.67;;;20.70;21.00;;;;;;4974863;28;20405;-72
2022/05/27 09:42:28;;;;;;;4.67;3.70;;;20.80;20.20;;;;;;4968832;28;20427;-72
2022/05/27 09:44:56;;;;;;;9.00;3.40;;;21.10;20.40;;;;;;4970267;28;20208;-71
2022/05/27 09:47:28;;;;;;;6.00;3.50;;;21.00;18.70;;;;;;4970052;28;21018;-72
2022/05/27 09:50:00;;;;;;;6.00;3.50;;;20.90;21.70;;;;;;4971047;28;20418;-72
2022/05/27 09:52:29;;;;;;;6.10;3.90;;;20.50;22.80;;;;;;4966847;28;20432;-72
2022/05/27 09:55:01;;;;;;;5.73;3.70;;;20.40;25.10;;;;;;4970496;28;20498;-71
2022/05/27 09:57:30;;;;;;;6.23;3.37;;;20.40;24.70;;;;;;4976165;28;20952;-72
2022/05/27 10:00:04;;;;;;;7.57;3.90;;;20.50;23.60;;;;;;4973862;28;20434;-71
2022/05/27 10:02:37;;;;;;;3.57;2.80;;;20.70;26.40;;;;;;4969208;28;20426;-72
2022/05/27 10:05:12;;;;;;;4.97;2.07;;;20.80;20.00;;;;;;4977492;28;20472;-71
2022/05/27 10:07:42;;;;;;;2.83;2.10;;;20.90;19.30;;;;;;4965759;28;20450;-71
2022/05/27 10:10:28;;;;;;;3.00;2.23;;;20.80;18.50;;;;;;4958951;28;20481;-71
2022/05/27 10:12:57;;;;;;;3.07;2.20;;;20.80;19.30;;;;;;4951298;28;20964;-73
2022/05/27 10:15:33;;;;;;;3.47;2.23;;;20.90;17.60;;;;;;4965280;28;20514;-72
2022/05/27 10:18:22;;;;;;;3.00;2.10;;;20.80;17.20;;;;;;4956848;28;20611;-71
2022/05/27 10:21:03;;;;;;;2.70;1.90;;;20.90;18.40;;;;;;4961315;28;20469;-71
2022/05/27 10:23:30;;;;;;;3.90;2.40;;;20.80;17.70;;;;;;4960735;28;20438;-73
2022/05/27 10:25:55;;;;;;;3.13;2.37;;;20.40;20.30;;;;;;4973943;28;20438;-71
2022/05/27 10:28:29;;;;;;;3.30;2.50;;;20.20;23.30;;;;;;4973028;28;20505;-70
2022/05/27 10:31:13;;;;;;;3.50;2.60;;;20.00;23.20;;;;;;4952993;28;20344;-71
2022/05/27 10:33:44;;;;;;;8.60;2.90;;;19.80;26.20;;;;;;4977937;28;20431;-71
2022/05/27 10:36:47;;;;;;;3.77;2.57;;;19.60;27.10;;;;;;4959378;28;20463;-71
2022/05/27 10:39:12;;;;;;;4.70;2.27;;;19.50;30.00;;;;;;4957993;28;20415;-71
2022/05/27 10:42:06;;;;;;;5.43;2.53;;;19.60;28.30;;;;;;4955690;28;20435;-71
2022/05/27 10:45:08;;;;;;;4.47;2.50;;;19.70;27.30;;;;;;4968734;28;20198;-72
2022/05/27 10:47:53;;;;;;;3.40;2.20;;;19.60;27.60;;;;;;4961089;28;20427;-71
2022/05/27 10:50:44;;;;;;;8.73;2.33;;;19.60;29.30;;;;;;4969466;28;20514;-71
2022/05/27 10:53:35;;;;;;;7.73;2.30;;;19.50;29.90;;;;;;4979919;28;20422;-72
2022/05/27 10:56:22;;;;;;;4.13;2.13;;;19.40;30.70;;;;;;4960521;28;20462;-72
2022/05/27 11:02:26;;;;;;;4.10;2.53;;;19.40;28.60;;;;;;4968829;28;20481;-72
2022/05/27 11:05:02;;;;;;;3.53;2.43;;;19.40;30.00;;;;;;4965271;28;20459;-72
2022/05/27 11:07:46;;;;;;;3.30;2.50;;;19.40;31.70;;;;;;4960459;28;20858;-73
2022/05/27 11:10:59;;;;;;;4.27;2.83;;;19.40;32.20;;;;;;4956630;28;20995;-71
2022/05/27 11:16:45;;;;;;;3.27;2.43;;;19.40;31.30;;;;;;4916964;29;20563;-71
2022/05/27 11:19:47;;;;;;;4.20;2.50;;;19.40;35.70;;;;;;4955024;28;20426;-71
2022/05/27 11:22:12;;;;;;;4.03;2.13;;;19.40;28.70;;;;;;4959851;28;20431;-71
2022/05/27 11:25:00;;;;;;;4.10;2.50;;;19.30;32.20;;;;;;4966511;28;20993;-71
2022/05/27 11:27:54;;;;;;;3.97;2.47;;;19.40;32.90;;;;;;4952219;28;20180;-71
2022/05/27 11:30:32;;;;;;;4.17;1.93;;;19.30;32.70;;;;;;4957158;28;20455;-71
2022/05/27 11:33:01;;;;;;;3.47;2.47;;;19.40;32.10;;;;;;4966547;28;20506;-72
2022/05/27 11:35:33;;;;;;;4.37;2.10;;;19.30;32.30;;;;;;4969430;28;20549;-71
2022/05/27 11:37:59;;;;;;;3.37;2.20;;;19.20;34.20;;;;;;4967921;28;20423;-72
2022/05/27 11:40:37;;;;;;;3.77;2.50;;;19.30;29.00;;;;;;4970225;28;20502;-71
2022/05/27 11:43:24;;;;;;;2.97;2.03;;;19.30;32.70;;;;;;4967533;28;20206;-72
2022/05/27 11:46:22;;;;;;;4.23;2.13;;;19.30;29.70;;;;;;4969938;28;20767;-71
2022/05/27 11:49:04;;;;;;;4.23;2.17;;;19.00;29.50;;;;;;4965140;28;20455;-72
2022/05/27 11:51:32;;;;;;;3.60;2.40;;;19.40;32.40;;;;;;4965316;28;20789;-71
2022/05/27 11:54:16;;;;;;;2.70;2.00;;;19.40;29.40;;;;;;4977195;28;20572;-71
2022/05/27 11:57:23;;;;;;;3.50;2.27;;;19.40;29.40;;;;;;4970197;28;20451;-71
2022/05/27 11:59:56;;;;;;;2.57;1.90;;;19.40;31.40;;;;;;4959723;28;20513;-71
2022/05/27 12:02:35;;;;;;;5.23;2.33;;;19.30;30.50;;;;;;4958284;28;20443;-71
2022/05/27 12:05:16;;;;;;;3.50;2.17;;;19.30;29.20;;;;;;4970507;28;20521;-70
2022/05/27 12:08:00;;;;;;;6.53;2.70;;;19.40;29.90;;;;;;4978843;28;20415;-71
2022/05/27 12:10:43;;;;;;;2.60;2.10;;;19.30;32.50;;;;;;4971876;28;20407;-71
2022/05/27 12:13:29;;;;;;;3.23;2.10;;;19.20;30.80;;;;;;4971269;28;20465;-70
2022/05/27 12:16:12;;;;;;;4.43;2.10;;;19.30;29.50;;;;;;4958815;28;20467;-70
2022/05/27 12:18:54;;;;;;;2.63;1.70;;;19.20;32.10;;;;;;4959795;28;20437;-70
2022/05/27 12:21:24;;;;;;;2.10;1.70;;;19.30;27.90;;;;;;4959651;28;20435;-70
2022/05/27 12:23:57;;;;;;;8.80;2.00;;;19.40;35.60;;;;;;4955893;28;20514;-69
2022/05/27 12:26:28;;;;;;;3.20;2.13;;;19.40;30.70;;;;;;4971744;28;20421;-70
2022/05/27 12:28:58;;;;;;;3.00;1.90;;;19.40;33.20;;;;;;4981599;28;20454;-70
2022/05/27 12:31:24;;;;;;;3.07;2.07;;;19.40;29.10;;;;;;4976667;28;20445;-70
2022/05/27 12:33:50;;;;;;;3.67;2.30;;;19.40;39.50;;;;;;4968719;28;20434;-70
2022/05/27 12:36:28;;;;;;;4.00;2.30;;;19.30;44.90;;;;;;4952040;28;20465;-70
2022/05/27 12:38:57;;;;;;;3.17;2.10;;;19.40;41.00;;;;;;4959479;28;20941;-70
2022/05/27 12:41:40;;;;;;;4.33;2.00;;;19.70;33.40;;;;;;4961718;28;20807;-69
2022/05/27 12:44:20;;;;;;;3.60;2.30;;;19.80;32.70;;;;;;4969775;28;20809;-70
2022/05/27 12:46:56;;;;;;;3.13;1.83;;;20.10;30.60;;;;;;4966680;28;20444;-70
2022/05/27 12:49:34;;;;;;;3.40;2.00;;;20.50;25.30;;;;;;4977796;28;20508;-70
2022/05/27 12:52:00;;;;;;;2.90;2.20;;;20.80;24.90;;;;;;4969148;28;20454;-70
2022/05/27 12:54:45;;;;;;;3.63;2.30;;;20.90;22.50;;;;;;4962054;28;20626;-70
2022/05/27 13:03:33;;;;;;;2.97;1.90;;;21.00;20.60;;;;;;4922018;28;1044391;-70
2022/05/27 13:06:15;;;;;;;2.67;1.90;;;20.90;20.30;;;;;;4981370;28;20776;-70
2022/05/27 13:09:30;;;;;;;2.67;2.03;;;21.00;20.50;;;;;;4976868;28;20410;-70
2022/05/27 13:11:55;;;;;;;6.57;2.20;;;21.30;23.80;;;;;;4961709;28;20458;-71
2022/05/27 13:14:38;;;;;;;2.97;2.27;;;21.70;17.80;;;;;;4966401;28;20828;-70
2022/05/27 13:17:31;;;;;;;5.10;2.30;;;21.70;15.10;;;;;;4960106;28;20303;-71
2022/05/27 13:20:24;;;;;;;3.23;2.30;;;22.90;8.00;;;;;;4960302;28;20499;-71
2022/05/27 13:22:58;;;;;;;2.90;2.10;;;24.70;2.90;;;;;;4958490;28;20436;-71
2022/05/27 13:25:26;;;;;;;2.77;1.90;;;26.00;1.00;;;;;;4969676;28;20534;-71
2022/05/27 13:28:38;;;;;;;4.53;2.27;;;26.80;1.00;;;;;;4970126;28;20502;-71
2022/05/27 13:31:12;;;;;;;9.93;2.10;;;27.00;1.00;;;;;;4969072;28;20418;-70
2022/05/27 13:33:52;;;;;;;4.07;2.10;;;27.00;1.00;;;;;;4962196;28;20449;-70
2022/05/27 13:36:23;;;;;;;3.23;2.23;;;27.20;1.00;;;;;;4971663;28;20611;-71
2022/05/27 13:39:01;;;;;;;6.23;2.23;;;26.70;1.00;;;;;;4971286;28;20456;-71
2022/05/27 13:41:32;;;;;;;3.30;2.27;;;26.40;1.00;;;;;;4970217;28;20852;-71
2022/05/27 13:43:58;;;;;;;4.17;1.87;;;26.20;1.00;;;;;;4971171;28;20540;-71
2022/05/27 13:46:28;;;;;;;4.90;2.40;;;26.10;1.00;;;;;;4970267;28;20544;-70
2022/05/27 13:49:01;;;;;;;3.30;2.20;;;26.80;1.00;;;;;;4962153;28;20345;-71
2022/05/27 13:51:27;;;;;;;3.37;2.60;;;27.50;1.00;;;;;;4966491;28;20207;-71